Time;durP1;ratioP1;P1;durP2;ratioP2;P2;SDS_P1;SDS_P2;PMS_P1;PMS_P2;Temp;Humidity;BMP_temperature;BMP_pressure;BME280_temperature;BME280_humidity;BME280_pressure;Samples;Min_cycle;Max_cycle;Signal;HPM_P1;HPM_P2
2023/03/11 00:02:14;;;;;;;41.20;17.63;;;;;;;-33.27;96.30;90808.94;4198200;28;20283;-70
2023/03/11 00:04:41;;;;;;;36.40;16.73;;;;;;;-33.31;96.65;90806.72;4188410;28;20295;-66
2023/03/11 00:07:09;;;;;;;37.60;17.03;;;;;;;-33.28;96.80;90802.41;4195012;28;20351;-68
2023/03/11 00:09:36;;;;;;;40.17;17.33;;;;;;;-33.31;97.00;90803.47;4202440;28;21026;-71
2023/03/11 00:12:03;;;;;;;40.60;16.10;;;;;;;-33.28;97.19;90802.41;4187090;28;20268;-71
2023/03/11 00:14:29;;;;;;;38.73;16.40;;;;;;;-33.34;97.00;90793.84;4188739;28;21593;-68
2023/03/11 00:16:56;;;;;;;37.40;16.03;;;;;;;-33.36;97.79;90791.47;4195674;28;21140;-67
2023/03/11 00:19:23;;;;;;;33.17;15.33;;;;;;;-33.26;96.79;90790.72;4195343;28;20265;-69
2023/03/11 00:21:49;;;;;;;36.87;15.73;;;;;;;-33.27;96.96;90792.41;4203314;28;20668;-70
2023/03/11 00:24:16;;;;;;;37.67;15.67;;;;;;;-33.25;96.26;90787.34;4200799;28;20306;-67
2023/03/11 00:26:42;;;;;;;32.97;14.80;;;;;;;-33.27;96.75;90784.22;4196881;28;20237;-67
2023/03/11 00:29:09;;;;;;;37.33;14.17;;;;;;;-33.21;96.42;90778.75;4197368;28;20240;-70
2023/03/11 00:31:35;;;;;;;28.40;13.63;;;;;;;-33.20;96.08;90782.81;4202002;28;23030;-70
2023/03/11 00:34:02;;;;;;;29.70;14.20;;;;;;;-33.17;95.55;90778.38;4187146;28;21532;-66
2023/03/11 00:36:30;;;;;;;27.87;13.40;;;;;;;-33.23;95.65;90775.66;4199914;28;20236;-67
2023/03/11 00:38:57;;;;;;;32.10;13.97;;;;;;;-33.23;95.87;90775.66;4182578;28;23647;-68
2023/03/11 00:41:24;;;;;;;28.57;14.13;;;;;;;-33.25;96.12;90778.25;4200752;28;21202;-70
2023/03/11 00:43:50;;;;;;;32.90;13.67;;;;;;;-33.26;95.80;90764.34;4181860;28;21271;-70
2023/03/11 00:46:17;;;;;;;29.50;14.03;;;;;;;-33.31;96.53;90769.69;4196172;28;20307;-69
2023/03/11 00:48:43;;;;;;;30.90;14.37;;;;;;;-33.28;97.13;90757.94;4197461;28;20236;-69
2023/03/11 00:51:14;;;;;;;38.03;15.23;;;;;;;-33.44;97.47;90753.53;4190419;28;20734;-67
2023/03/11 00:53:41;;;;;;;31.13;13.63;;;;;;;-33.35;97.30;90748.59;4192780;28;20300;-69
2023/03/11 00:56:12;;;;;;;33.73;14.70;;;;;;;-33.41;97.35;90749.09;4196073;28;20254;-69
2023/03/11 00:58:39;;;;;;;31.57;14.47;;;;;;;-33.44;97.51;90741.19;4198447;28;20330;-69
2023/03/11 01:01:15;;;;;;;32.93;14.73;;;;;;;-33.44;97.69;90739.47;4178795;28;20235;-66
2023/03/11 01:03:41;;;;;;;32.43;14.87;;;;;;;-33.50;98.25;90730.09;4193115;28;21573;-71
2023/03/11 01:06:08;;;;;;;38.60;14.53;;;;;;;-33.57;98.09;90729.09;4195942;28;21316;-67
2023/03/11 01:08:35;;;;;;;36.03;14.07;;;;;;;-33.68;98.36;90725.06;4193431;28;20298;-67
2023/03/11 01:11:03;;;;;;;31.00;13.90;;;;;;;-33.67;98.35;90723.38;4197061;28;20236;-67
2023/03/11 01:13:30;;;;;;;30.00;13.50;;;;;;;-33.70;99.04;90733.47;4195628;28;21421;-67
2023/03/11 01:15:56;;;;;;;33.37;15.33;;;;;;;-33.85;99.46;90726.44;4187766;28;20233;-69
2023/03/11 01:18:24;;;;;;;29.30;13.80;;;;;;;-33.80;99.45;90728.53;4195554;28;20249;-66
2023/03/11 01:20:51;;;;;;;29.13;14.47;;;;;;;-33.86;99.61;90727.34;4213311;28;20255;-67
2023/03/11 01:23:18;;;;;;;31.57;13.70;;;;;;;-33.84;99.51;90732.16;4196277;28;20361;-66
2023/03/11 01:25:45;;;;;;;32.20;14.40;;;;;;;-33.85;99.59;90723.19;4196312;28;20619;-68
2023/03/11 01:28:12;;;;;;;36.13;14.70;;;;;;;-33.87;99.93;90723.31;4188562;28;20234;-69
2023/03/11 01:30:40;;;;;;;30.23;14.10;;;;;;;-33.93;99.90;90723.03;4191386;28;20241;-70
2023/03/11 01:33:13;;;;;;;33.00;14.13;;;;;;;-34.04;100.00;90719.75;4185310;28;20576;-67
2023/03/11 01:35:41;;;;;;;34.53;14.73;;;;;;;-34.13;100.00;90722.22;4197915;28;20286;-67
2023/03/11 01:38:08;;;;;;;34.07;14.10;;;;;;;-34.11;100.00;90715.47;4194675;28;20264;-67
2023/03/11 01:40:42;;;;;;;32.23;14.27;;;;;;;-34.25;100.00;90714.91;4191860;28;20827;-67
2023/03/11 01:43:39;;;;;;;32.23;13.97;;;;;;;-34.27;100.00;90696.22;4182045;28;20248;-67
2023/03/11 01:46:17;;;;;;;29.87;13.60;;;;;;;-34.31;100.00;90695.69;4196394;28;20235;-66
2023/03/11 01:48:52;;;;;;;26.07;12.50;;;;;;;-34.25;100.00;90699.34;4197341;28;20478;-69
2023/03/11 01:51:22;;;;;;;32.87;13.20;;;;;;;-34.23;100.00;90693.38;4208028;28;20241;-67
2023/03/11 01:53:49;;;;;;;30.57;12.93;;;;;;;-34.29;100.00;90698.81;4192636;28;21510;-72
2023/03/11 01:56:15;;;;;;;28.23;12.77;;;;;;;-34.30;100.00;90689.06;4189526;28;20255;-67
2023/03/11 01:58:45;;;;;;;28.93;12.73;;;;;;;-34.31;100.00;90683.34;4197576;28;20239;-68
2023/03/11 02:01:12;;;;;;;33.73;13.27;;;;;;;-34.36;100.00;90678.00;4198205;28;20662;-68
2023/03/11 02:03:40;;;;;;;28.10;11.90;;;;;;;-34.31;100.00;90685.81;4189106;28;21852;-68
2023/03/11 02:06:13;;;;;;;27.60;11.77;;;;;;;-34.38;100.00;90685.53;4190782;28;20232;-68
2023/03/11 02:08:41;;;;;;;27.43;11.40;;;;;;;-34.53;100.00;90694.16;4182820;28;20309;-70
2023/03/11 02:11:11;;;;;;;22.70;11.03;;;;;;;-34.52;100.00;90690.81;4194263;28;20352;-68
2023/03/11 02:13:38;;;;;;;32.00;12.10;;;;;;;-34.55;100.00;90683.63;4182014;28;20228;-67
2023/03/11 02:16:05;;;;;;;23.50;11.53;;;;;;;-34.51;100.00;90684.19;4195909;28;20236;-68
2023/03/11 02:18:32;;;;;;;25.90;10.97;;;;;;;-34.62;100.00;90672.75;4193694;28;21910;-68
2023/03/11 02:21:21;;;;;;;25.13;12.20;;;;;;;-34.67;100.00;90670.66;4186097;28;20333;-67
2023/03/11 02:24:06;;;;;;;28.37;11.17;;;;;;;-34.57;99.94;90672.34;4191920;28;20240;-67
2023/03/11 02:26:54;;;;;;;26.30;11.07;;;;;;;-34.58;99.24;90669.09;4198289;28;20256;-68
2023/03/11 02:29:22;;;;;;;24.50;9.50;;;;;;;-34.76;99.68;90663.97;4192231;28;20283;-68
2023/03/11 02:31:48;;;;;;;21.90;10.87;;;;;;;-34.78;100.00;90648.56;4195806;28;24793;-68
2023/03/11 02:34:22;;;;;;;23.53;10.53;;;;;;;-34.78;99.78;90653.50;4193402;28;26594;-68
2023/03/11 02:36:48;;;;;;;24.00;10.40;;;;;;;-34.78;99.24;90647.75;4189860;28;21474;-68
2023/03/11 02:39:15;;;;;;;23.73;9.70;;;;;;;-34.77;98.97;90642.72;4190971;28;22282;-70
2023/03/11 02:41:44;;;;;;;24.13;10.10;;;;;;;-34.92;99.17;90647.19;4193782;28;20342;-71
2023/03/11 02:44:13;;;;;;;19.90;10.10;;;;;;;-34.88;99.52;90647.72;4179278;28;20297;-69
2023/03/11 02:46:41;;;;;;;21.77;9.53;;;;;;;-34.85;99.04;90649.94;4189503;28;25394;-71
2023/03/11 02:49:08;;;;;;;25.30;10.00;;;;;;;-34.95;99.70;90654.81;4195942;28;20250;-69
2023/03/11 02:51:35;;;;;;;22.23;10.07;;;;;;;-35.03;99.31;90643.13;4195341;28;20734;-70
2023/03/11 02:54:04;;;;;;;22.40;9.53;;;;;;;-35.11;100.00;90638.06;4185356;28;21479;-70
2023/03/11 02:56:30;;;;;;;22.40;9.80;;;;;;;-35.06;99.70;90640.91;4200405;28;20409;-69
2023/03/11 02:58:57;;;;;;;20.40;10.00;;;;;;;-35.06;99.84;90645.84;4184711;28;20638;-70
2023/03/11 03:01:23;;;;;;;19.83;9.90;;;;;;;-35.13;99.60;90642.31;4194570;28;20262;-70
2023/03/11 03:03:50;;;;;;;23.20;8.97;;;;;;;-35.20;100.00;90636.31;4190769;28;20247;-71
2023/03/11 03:06:17;;;;;;;21.00;9.23;;;;;;;-35.15;99.75;90640.88;4199416;28;20237;-69
2023/03/11 03:08:43;;;;;;;19.67;9.00;;;;;;;-35.20;99.49;90633.06;4192582;28;20233;-67
2023/03/11 03:11:10;;;;;;;17.00;8.03;;;;;;;-35.27;99.77;90627.88;4187784;28;21450;-67
2023/03/11 03:13:37;;;;;;;21.37;9.50;;;;;;;-35.38;100.00;90630.38;4193242;28;20244;-70
2023/03/11 03:16:03;;;;;;;19.43;8.37;;;;;;;-35.23;99.62;90629.16;4178890;28;20411;-69
2023/03/11 03:18:30;;;;;;;17.40;7.90;;;;;;;-35.30;99.83;90623.94;4178908;28;20583;-68
2023/03/11 03:20:56;;;;;;;15.93;7.73;;;;;;;-35.22;99.69;90634.88;4182454;28;21338;-69
2023/03/11 03:23:23;;;;;;;16.70;7.57;;;;;;;-35.29;99.73;90622.28;4180614;28;20333;-68
2023/03/11 03:25:49;;;;;;;12.47;6.80;;;;;;;-35.31;99.27;90627.31;4178713;28;20232;-71
2023/03/11 03:28:16;;;;;;;16.60;8.13;;;;;;;-35.34;99.19;90629.22;4193373;28;20437;-72
2023/03/11 03:30:42;;;;;;;19.10;8.00;;;;;;;-35.31;99.91;90626.53;4192183;28;21366;-67
2023/03/11 03:33:09;;;;;;;17.40;7.77;;;;;;;-35.53;100.00;90623.31;4175434;28;20435;-71
2023/03/11 03:35:42;;;;;;;23.40;8.53;;;;;;;-35.46;100.00;90623.59;4179057;28;20309;-67
2023/03/11 03:38:08;;;;;;;15.70;7.53;;;;;;;-35.41;100.00;90619.09;4168599;28;20248;-68
2023/03/11 03:40:35;;;;;;;16.53;7.00;;;;;;;-35.38;99.66;90621.31;4182865;28;20308;-68
2023/03/11 03:43:02;;;;;;;13.90;7.20;;;;;;;-35.34;99.36;90617.72;4199437;28;20246;-69
2023/03/11 03:45:29;;;;;;;13.67;6.90;;;;;;;-35.21;99.38;90607.66;4189877;28;20237;-70
2023/03/11 03:47:55;;;;;;;13.67;6.93;;;;;;;-35.25;99.08;90611.25;4181853;28;20225;-70
2023/03/11 03:50:22;;;;;;;17.47;7.60;;;;;;;-35.33;99.35;90613.56;4182194;28;21528;-69
2023/03/11 03:52:49;;;;;;;14.47;6.87;;;;;;;-35.28;99.36;90613.97;4179507;28;22268;-68
2023/03/11 03:55:15;;;;;;;19.83;7.60;;;;;;;-35.13;98.86;90605.38;4187130;28;20318;-70
2023/03/11 03:57:42;;;;;;;16.80;7.43;;;;;;;-35.18;97.80;90602.47;4180368;28;20365;-70
2023/03/11 04:00:09;;;;;;;15.97;7.30;;;;;;;-35.05;98.36;90612.13;4184893;28;20356;-69
2023/03/11 04:02:35;;;;;;;14.33;6.93;;;;;;;-35.13;98.68;90600.47;4191439;28;20294;-68
2023/03/11 04:05:02;;;;;;;14.03;6.80;;;;;;;-35.05;98.14;90592.41;4183256;28;20243;-69
2023/03/11 04:07:29;;;;;;;13.63;7.10;;;;;;;-35.07;98.32;90594.22;4178446;28;20616;-67
2023/03/11 04:09:55;;;;;;;17.73;7.47;;;;;;;-35.17;98.24;90598.38;4191490;28;20281;-71
2023/03/11 04:12:22;;;;;;;14.10;6.87;;;;;;;-35.16;98.05;90590.06;4227687;28;21653;-69
2023/03/11 04:14:49;;;;;;;18.53;7.07;;;;;;;-35.16;98.22;90590.84;4225861;28;20227;-68
2023/03/11 04:17:16;;;;;;;16.10;6.90;;;;;;;-35.08;97.64;90588.53;4234362;28;20239;-69
2023/03/11 04:19:43;;;;;;;15.33;7.03;;;;;;;-35.07;98.41;90597.47;4227101;28;20251;-70
2023/03/11 04:22:09;;;;;;;17.10;7.83;;;;;;;-35.09;98.26;90577.09;4227202;28;20237;-68
2023/03/11 04:24:36;;;;;;;17.10;8.10;;;;;;;-35.05;97.69;90578.41;4234044;28;21517;-70
2023/03/11 04:27:02;;;;;;;15.63;7.57;;;;;;;-35.08;97.54;90582.81;4234910;28;20237;-70
2023/03/11 04:29:29;;;;;;;16.47;7.70;;;;;;;-35.07;98.32;90575.28;4224089;28;20882;-67
2023/03/11 04:31:55;;;;;;;19.40;7.97;;;;;;;-35.18;97.83;90567.22;4229837;28;21192;-67
2023/03/11 04:34:22;;;;;;;19.27;7.67;;;;;;;-35.12;98.46;90562.59;4236155;28;20292;-70
2023/03/11 04:36:52;;;;;;;15.13;7.80;;;;;;;-35.09;98.44;90569.72;4229538;28;20243;-71
2023/03/11 04:39:20;;;;;;;16.87;7.50;;;;;;;-35.05;97.74;90583.34;4228552;28;21225;-66
2023/03/11 04:41:46;;;;;;;18.80;8.20;;;;;;;-35.09;98.04;90569.72;4236245;28;21077;-69
2023/03/11 04:44:13;;;;;;;15.47;7.30;;;;;;;-35.09;97.51;90568.97;4242226;28;20227;-68
2023/03/11 04:46:40;;;;;;;18.07;7.27;;;;;;;-35.12;98.34;90572.44;4228031;28;20239;-68
2023/03/11 04:49:06;;;;;;;18.13;8.20;;;;;;;-35.12;98.19;90574.91;4224276;28;20238;-71
2023/03/11 04:51:33;;;;;;;18.50;7.70;;;;;;;-35.03;98.23;90576.63;4232507;28;25240;-69
2023/03/11 04:54:00;;;;;;;15.97;7.40;;;;;;;-35.03;98.09;90579.06;4215276;28;21377;-67
2023/03/11 04:56:26;;;;;;;14.70;6.90;;;;;;;-34.98;97.70;90577.94;4226794;28;20425;-68
2023/03/11 04:58:53;;;;;;;13.20;7.03;;;;;;;-35.03;97.35;90574.16;4229641;28;20359;-68
2023/03/11 05:01:19;;;;;;;15.27;7.17;;;;;;;-35.18;98.53;90584.47;4231003;28;20386;-69
2023/03/11 05:03:46;;;;;;;17.87;6.90;;;;;;;-35.19;99.18;90570.63;4223365;28;20235;-69
2023/03/11 05:06:12;;;;;;;16.60;7.27;;;;;;;-35.18;99.44;90575.41;4217867;28;25500;-70
2023/03/11 05:08:39;;;;;;;15.87;7.13;;;;;;;-35.20;99.18;90577.22;4225413;28;20235;-68
2023/03/11 05:11:06;;;;;;;18.63;7.83;;;;;;;-35.22;99.04;90570.88;4224885;28;20263;-68
2023/03/11 05:13:33;;;;;;;17.87;7.47;;;;;;;-35.07;98.80;90572.06;4233449;28;20241;-74
2023/03/11 05:15:59;;;;;;;23.13;7.83;;;;;;;-35.03;98.38;90565.97;4205130;28;20747;-71
2023/03/11 05:18:26;;;;;;;20.13;7.67;;;;;;;-35.03;98.32;90563.53;4237106;28;20342;-71
2023/03/11 05:20:52;;;;;;;16.43;6.47;;;;;;;-35.08;98.53;90566.34;4236625;28;20638;-76
2023/03/11 05:23:19;;;;;;;17.57;7.33;;;;;;;-35.21;98.98;90563.34;4231930;28;21114;-72
2023/03/11 05:25:45;;;;;;;17.33;6.90;;;;;;;-35.26;99.41;90562.94;4206417;28;20233;-68
2023/03/11 05:28:12;;;;;;;16.20;7.00;;;;;;;-35.28;100.00;90563.03;4223361;28;22272;-71
2023/03/11 05:30:38;;;;;;;15.03;6.93;;;;;;;-35.33;100.00;90554.47;4220263;28;20421;-69
2023/03/11 05:33:05;;;;;;;15.80;7.03;;;;;;;-35.33;100.00;90562.63;4226903;28;20768;-71
2023/03/11 05:35:31;;;;;;;13.17;6.20;;;;;;;-35.43;100.00;90549.50;4231191;28;20298;-69
2023/03/11 05:37:58;;;;;;;14.83;5.70;;;;;;;-35.26;100.00;90555.53;4231836;28;20242;-67
2023/03/11 05:40:24;;;;;;;15.63;5.50;;;;;;;-35.37;100.00;90553.94;4227828;28;20231;-69
2023/03/11 05:42:51;;;;;;;11.57;4.80;;;;;;;-35.40;100.00;90553.41;4226282;28;21809;-69
2023/03/11 05:45:17;;;;;;;10.40;5.03;;;;;;;-35.30;100.00;90551.75;4226770;28;23668;-66
2023/03/11 05:47:44;;;;;;;12.63;5.07;;;;;;;-35.23;100.00;90545.44;4230610;28;20670;-68
2023/03/11 05:50:11;;;;;;;11.73;4.73;;;;;;;-35.23;100.00;90542.97;4234129;28;20308;-72
2023/03/11 05:52:38;;;;;;;13.43;4.50;;;;;;;-35.32;100.00;90546.19;4247297;28;20235;-73
2023/03/11 05:55:05;;;;;;;11.63;5.00;;;;;;;-35.20;100.00;90539.50;4222936;28;20312;-67
2023/03/11 05:57:32;;;;;;;8.50;4.17;;;;;;;-35.19;100.00;90533.69;4257178;28;22661;-67
2023/03/11 05:59:59;;;;;;;12.83;5.20;;;;;;;-35.41;100.00;90532.13;4221418;28;21673;-65
2023/03/11 06:02:25;;;;;;;11.67;4.90;;;;;;;-35.30;100.00;90534.53;4241635;28;21699;-66
2023/03/11 06:04:52;;;;;;;15.13;4.40;;;;;;;-35.21;100.00;90523.94;4292241;28;20409;-71
2023/03/11 06:07:19;;;;;;;15.83;5.00;;;;;;;-35.35;100.00;90529.19;4266253;28;21201;-71
2023/03/11 06:09:49;;;;;;;15.07;5.20;;;;;;;-35.32;100.00;90528.94;4269374;28;20235;-69
2023/03/11 06:12:15;;;;;;;13.07;5.40;;;;;;;-35.38;100.00;90537.63;4221197;28;20230;-73
2023/03/11 06:14:42;;;;;;;11.40;5.33;;;;;;;-35.27;100.00;90541.69;4229950;28;20231;-69
2023/03/11 06:17:09;;;;;;;12.70;6.13;;;;;;;-35.35;100.00;90549.66;4219038;28;21931;-69
2023/03/11 06:19:35;;;;;;;12.87;5.87;;;;;;;-35.40;100.00;90549.25;4229966;28;20243;-70
2023/03/11 06:22:02;;;;;;;13.83;5.67;;;;;;;-35.52;100.00;90553.47;4231804;28;20246;-71
2023/03/11 06:24:28;;;;;;;14.17;6.17;;;;;;;-35.50;100.00;90548.44;4242975;28;20323;-74
2023/03/11 06:26:55;;;;;;;19.77;6.73;;;;;;;-35.46;100.00;90554.66;4246990;28;20234;-75
2023/03/11 06:29:23;;;;;;;15.03;6.07;;;;;;;-35.54;100.00;90562.66;4232239;28;20302;-73
2023/03/11 06:31:50;;;;;;;12.27;5.70;;;;;;;-35.52;100.00;90570.72;4230404;28;20235;-73
2023/03/11 06:34:16;;;;;;;16.67;6.53;;;;;;;-35.44;100.00;90567.63;4223032;28;20869;-73
2023/03/11 06:36:43;;;;;;;15.77;6.70;;;;;;;-35.40;100.00;90568.19;4216775;28;20234;-70
2023/03/11 06:39:13;;;;;;;17.00;7.37;;;;;;;-35.48;100.00;90567.09;4229894;28;20246;-72
2023/03/11 06:41:40;;;;;;;17.50;6.87;;;;;;;-35.49;100.00;90559.84;4215181;28;22774;-70
2023/03/11 06:44:10;;;;;;;13.63;6.73;;;;;;;-35.47;100.00;90560.50;4211045;28;22118;-72
2023/03/11 06:46:37;;;;;;;15.97;7.17;;;;;;;-35.42;100.00;90560.91;4231081;28;21321;-73
2023/03/11 06:49:03;;;;;;;16.87;6.90;;;;;;;-35.42;100.00;90558.44;4221502;28;22101;-72
2023/03/11 06:51:30;;;;;;;12.77;6.23;;;;;;;-35.44;100.00;90549.63;4243699;28;22189;-74
2023/03/11 06:53:56;;;;;;;12.97;6.33;;;;;;;-35.47;100.00;90556.34;4222885;28;20527;-76
2023/03/11 06:56:23;;;;;;;15.33;6.23;;;;;;;-35.44;100.00;90552.09;4238323;28;20239;-72
2023/03/11 06:58:50;;;;;;;14.17;6.87;;;;;;;-35.46;100.00;90557.13;4235934;28;20415;-77
2023/03/11 07:01:22;;;;;;;12.63;6.90;;;;;;;-35.37;100.00;90555.63;4228364;28;21220;-72
2023/03/11 07:03:49;;;;;;;12.37;6.97;;;;;;;-35.35;100.00;90566.91;4232843;28;20246;-73
2023/03/11 07:06:21;;;;;;;16.27;7.80;;;;;;;-35.41;100.00;90566.59;4215685;28;20299;-73
2023/03/11 07:08:49;;;;;;;13.10;7.23;;;;;;;-35.40;100.00;90568.94;4204245;28;22973;-74
2023/03/11 07:11:19;;;;;;;15.23;7.40;;;;;;;-35.43;100.00;90559.38;4232551;28;20276;-73
2023/03/11 07:13:46;;;;;;;14.77;7.63;;;;;;;-35.47;100.00;90560.50;4224362;28;20246;-76
2023/03/11 07:16:18;;;;;;;13.00;7.10;;;;;;;-35.35;100.00;90566.13;4228902;28;23159;-71
2023/03/11 07:18:47;;;;;;;15.93;7.77;;;;;;;-35.35;100.00;90566.13;4251022;28;22501;-73
2023/03/11 07:21:16;;;;;;;16.50;8.30;;;;;;;-35.36;100.00;90572.75;4238370;28;20252;-73
2023/03/11 07:23:43;;;;;;;15.03;7.73;;;;;;;-35.43;100.00;90565.97;4244029;28;21296;-72
2023/03/11 07:26:12;;;;;;;13.77;7.60;;;;;;;-35.43;100.00;90568.44;4226977;28;20250;-70
2023/03/11 07:28:38;;;;;;;16.43;7.80;;;;;;;-35.44;100.00;90564.41;4242116;28;20231;-72
2023/03/11 07:31:10;;;;;;;17.30;8.03;;;;;;;-35.49;100.00;90562.28;4235158;28;20261;-71
2023/03/11 07:33:37;;;;;;;17.63;8.43;;;;;;;-35.38;100.00;90566.38;4258128;28;20249;-75
2023/03/11 07:36:05;;;;;;;14.87;8.97;;;;;;;-35.47;100.00;90563.72;4235727;28;20342;-70
2023/03/11 07:38:32;;;;;;;14.07;8.27;;;;;;;-35.54;100.00;90560.19;4236600;28;20468;-70
2023/03/11 07:40:59;;;;;;;16.33;9.30;;;;;;;-35.58;100.00;90553.19;4235148;28;21742;-73
2023/03/11 07:43:26;;;;;;;18.60;10.60;;;;;;;-35.61;100.00;90556.69;4229330;28;20555;-75
2023/03/11 07:46:05;;;;;;;19.20;10.37;;;;;;;-35.51;100.00;90555.03;4239762;28;21855;-71
2023/03/11 07:48:32;;;;;;;17.67;11.07;;;;;;;-35.56;100.00;90559.53;4228594;28;20654;-73
2023/03/11 07:51:00;;;;;;;16.30;10.43;;;;;;;-35.60;100.00;90562.38;4213608;28;22371;-74
2023/03/11 07:53:27;;;;;;;20.80;11.40;;;;;;;-35.56;100.00;90549.69;4238257;28;20740;-75
2023/03/11 07:55:57;;;;;;;20.83;11.83;;;;;;;-35.55;100.00;90561.13;4232099;28;20346;-71
2023/03/11 07:58:24;;;;;;;16.83;11.13;;;;;;;-35.63;100.00;90552.78;4227551;28;20404;-75
2023/03/11 08:00:51;;;;;;;16.47;10.60;;;;;;;-35.62;100.00;90560.06;4238188;28;20344;-72
2023/03/11 08:03:18;;;;;;;16.00;10.83;;;;;;;-35.55;100.00;90566.03;4218326;28;20246;-72
2023/03/11 08:05:44;;;;;;;18.37;11.80;;;;;;;-35.76;100.00;90557.91;4228572;28;20662;-73
2023/03/11 08:08:11;;;;;;;21.57;12.70;;;;;;;-35.75;100.00;90566.84;4222891;28;20241;-72
2023/03/11 08:10:38;;;;;;;19.17;11.53;;;;;;;-35.77;100.00;90576.03;4231400;28;20307;-72
2023/03/11 08:13:05;;;;;;;17.20;10.77;;;;;;;-35.79;100.00;90560.59;4213694;28;22594;-70
2023/03/11 08:15:31;;;;;;;16.60;10.93;;;;;;;-35.85;100.00;90564.31;4220980;28;20323;-76
2023/03/11 08:17:58;;;;;;;17.70;10.67;;;;;;;-35.80;100.00;90561.50;4219995;28;21367;-72
2023/03/11 08:20:25;;;;;;;17.20;10.70;;;;;;;-35.78;100.00;90565.41;4229417;28;22835;-71
2023/03/11 08:22:51;;;;;;;17.70;11.00;;;;;;;-35.86;100.00;90561.97;4246820;28;20332;-72
2023/03/11 08:25:24;;;;;;;19.47;11.07;;;;;;;-35.88;100.00;90559.66;4242513;28;25606;-71
2023/03/11 08:27:51;;;;;;;20.83;11.30;;;;;;;-35.92;100.00;90568.94;4241777;28;20275;-70
2023/03/11 08:30:18;;;;;;;20.57;12.33;;;;;;;-35.94;100.00;90565.81;4236178;28;20239;-70
2023/03/11 08:32:44;;;;;;;20.37;11.83;;;;;;;-36.04;100.00;90572.34;4239608;28;20227;-73
2023/03/11 08:35:11;;;;;;;18.87;13.03;;;;;;;-35.99;100.00;90582.59;4236942;28;20242;-71
2023/03/11 08:37:38;;;;;;;21.17;12.77;;;;;;;-35.96;100.00;90581.59;4234179;28;20323;-72
2023/03/11 08:40:05;;;;;;;24.53;14.03;;;;;;;-35.93;100.00;90579.69;4218600;28;20632;-72
2023/03/11 08:42:31;;;;;;;20.83;13.33;;;;;;;-35.98;100.00;90586.63;4231935;28;20401;-68
2023/03/11 08:44:58;;;;;;;24.00;14.73;;;;;;;-35.96;100.00;90588.97;4224034;28;21165;-72
2023/03/11 08:47:24;;;;;;;24.37;13.93;;;;;;;-35.97;100.00;90589.88;4249953;28;20441;-75
2023/03/11 08:49:51;;;;;;;21.77;14.00;;;;;;;-36.04;100.00;90587.09;4237197;28;20282;-76
2023/03/11 08:52:18;;;;;;;23.50;14.33;;;;;;;-35.97;100.00;90590.66;4218799;28;20297;-71
2023/03/11 08:54:44;;;;;;;25.40;15.57;;;;;;;-36.06;100.00;90596.28;4256964;28;20348;-73
2023/03/11 08:57:11;;;;;;;26.97;15.70;;;;;;;-36.03;100.00;90595.25;4323376;28;20499;-73
2023/03/11 08:59:37;;;;;;;26.37;15.43;;;;;;;-36.18;100.00;90593.09;4225670;28;20243;-72
2023/03/11 09:02:04;;;;;;;27.30;16.47;;;;;;;-36.07;100.00;90594.69;4224736;28;20239;-75
2023/03/11 09:04:31;;;;;;;31.33;17.23;;;;;;;-36.09;100.00;90596.53;4250923;28;20289;-73
2023/03/11 09:06:57;;;;;;;31.53;16.53;;;;;;;-36.06;100.00;90602.88;4207820;28;21383;-72
2023/03/11 09:09:24;;;;;;;28.50;16.13;;;;;;;-36.14;100.00;90599.34;4244637;28;20238;-74
2023/03/11 09:11:51;;;;;;;25.67;15.50;;;;;;;-36.26;100.00;90600.28;4239026;28;21814;-76
2023/03/11 09:14:17;;;;;;;28.57;16.57;;;;;;;-36.13;100.00;90605.03;4229749;28;20546;-72
2023/03/11 09:16:44;;;;;;;31.73;16.83;;;;;;;-36.18;100.00;90602.16;4241727;28;20240;-72
2023/03/11 09:19:11;;;;;;;30.50;14.10;;;;;;;-36.18;100.00;90614.47;4237949;28;22084;-72
2023/03/11 09:21:37;;;;;;;27.97;14.47;;;;;;;-36.15;100.00;90621.59;4250289;28;20255;-72
2023/03/11 09:24:05;;;;;;;32.07;15.03;;;;;;;-36.10;100.00;90624.47;4230133;28;20458;-71
2023/03/11 09:26:32;;;;;;;31.63;15.30;;;;;;;-36.12;100.00;90626.25;4237298;28;20247;-72
2023/03/11 09:28:59;;;;;;;35.77;17.27;;;;;;;-36.37;100.00;90637.19;4233868;28;20293;-72
2023/03/11 09:31:25;;;;;;;36.83;17.20;;;;;;;-36.52;100.00;90641.53;4237685;28;20292;-74
2023/03/11 09:33:54;;;;;;;36.07;17.87;;;;;;;-36.77;100.00;90649.97;4228332;28;21856;-75
2023/03/11 09:36:21;;;;;;;41.63;17.37;;;;;;;-37.07;100.00;90653.03;4210365;28;20233;-75
2023/03/11 09:38:48;;;;;;;35.57;16.27;;;;;;;-37.33;100.00;90667.94;4220617;28;20545;-75
2023/03/11 09:41:37;;;;;;;37.23;17.33;;;;;;;-37.67;100.00;90675.25;4227763;28;21607;-74
2023/03/11 09:44:31;;;;;;;39.37;17.57;;;;;;;-37.80;100.00;90681.09;4241523;28;20235;-75
2023/03/11 09:47:30;;;;;;;38.90;18.37;;;;;;;-38.11;100.00;90693.03;4225071;28;22158;-73
2023/03/11 09:50:04;;;;;;;41.90;17.60;;;;;;;-38.21;100.00;90694.56;4233979;28;20778;-71
2023/03/11 09:52:43;;;;;;;44.23;19.70;;;;;;;-38.50;100.00;90700.53;4227449;28;20246;-73
2023/03/11 09:55:24;;;;;;;44.77;20.50;;;;;;;-38.62;100.00;90695.66;4244469;28;20347;-74
2023/03/11 09:57:51;;;;;;;43.87;19.93;;;;;;;-38.72;100.00;90701.16;4220713;28;20391;-74
2023/03/11 10:00:19;;;;;;;44.23;19.33;;;;;;;-38.69;100.00;90712.41;4221902;28;20341;-76
2023/03/11 10:02:46;;;;;;;47.93;20.23;;;;;;;-38.70;100.00;90713.31;4231583;28;20227;-72
2023/03/11 10:05:26;;;;;;;49.23;19.63;;;;;;;-38.91;100.00;90726.09;4218637;28;25775;-76
2023/03/11 10:08:03;;;;;;;40.70;16.50;;;;;;;-38.97;100.00;90728.94;4229578;28;20403;-71
2023/03/11 10:10:34;;;;;;;34.07;15.37;;;;;;;-39.08;100.00;90731.28;4219344;28;21385;-70
2023/03/11 10:13:23;;;;;;;31.90;13.97;;;;;;;-39.09;100.00;90741.94;4218865;28;22279;-72
2023/03/11 10:16:07;;;;;;;27.10;12.77;;;;;;;-39.29;100.00;90750.56;4214744;28;20238;-75
2023/03/11 10:18:43;;;;;;;26.20;13.00;;;;;;;-39.35;100.00;90749.28;4209917;28;20262;-73
2023/03/11 10:21:19;;;;;;;25.73;12.87;;;;;;;-39.43;100.00;90748.22;4244442;28;20730;-74
2023/03/11 10:23:56;;;;;;;22.13;11.47;;;;;;;-39.42;100.00;90762.78;4231108;28;21753;-75
2023/03/11 10:26:34;;;;;;;25.10;11.93;;;;;;;-39.46;100.00;90761.44;4239613;28;22956;-69
2023/03/11 10:29:28;;;;;;;19.27;9.40;;;;;;;-39.61;100.00;90759.91;4213543;28;20404;-71
2023/03/11 10:32:16;;;;;;;12.93;7.27;;;;;;;-39.71;100.00;90774.38;4200062;28;20241;-73
2023/03/11 10:34:48;;;;;;;14.97;7.90;;;;;;;-39.89;100.00;90770.63;4223777;28;21224;-72
2023/03/11 10:37:33;;;;;;;13.90;7.30;;;;;;;-39.99;100.00;90780.16;4212606;28;20235;-76
2023/03/11 10:40:29;;;;;;;15.73;7.77;;;;;;;-40.06;100.00;90779.75;4228871;28;20285;-75
2023/03/11 10:42:59;;;;;;;12.43;7.77;;;;;;;-40.03;100.00;90794.22;4232869;28;20257;-70
2023/03/11 10:45:27;;;;;;;14.67;8.40;;;;;;;-40.09;100.00;90793.78;4213062;28;20235;-70
2023/03/11 10:47:56;;;;;;;17.33;9.60;;;;;;;-40.02;100.00;90797.47;4221880;28;20251;-73
2023/03/11 10:50:23;;;;;;;16.47;9.40;;;;;;;-40.14;100.00;90806.28;4226405;28;20247;-77
2023/03/11 10:53:28;;;;;;;16.77;10.23;;;;;;;-40.22;100.00;90806.72;4226346;28;20308;-77
2023/03/11 10:55:57;;;;;;;16.47;9.33;;;;;;;-40.15;100.00;90813.69;4184168;28;23185;-75
2023/03/11 10:58:29;;;;;;;17.67;10.93;;;;;;;-40.25;100.00;90818.38;4171316;28;21885;-75
2023/03/11 11:01:10;;;;;;;18.77;10.77;;;;;;;-40.32;100.00;90829.38;4199851;28;20241;-75
2023/03/11 11:03:41;;;;;;;16.13;10.73;;;;;;;-40.31;100.00;90839.03;4214155;28;21108;-73
2023/03/11 11:06:25;;;;;;;18.60;10.40;;;;;;;-40.49;100.00;90843.34;4232745;28;20241;-75
2023/03/11 11:09:18;;;;;;;17.37;10.23;;;;;;;-40.48;100.00;90840.00;4253653;28;20668;-74
2023/03/11 11:12:05;;;;;;;12.77;7.60;;;;;;;-40.83;100.00;90841.25;4271715;28;20236;-75
2023/03/11 11:14:45;;;;;;;12.40;6.90;;;;;;;-40.81;100.00;90852.50;4234415;28;20246;-75
2023/03/11 11:17:28;;;;;;;10.67;7.30;;;;;;;-40.87;100.00;90860.13;4244601;28;20234;-75
2023/03/11 11:19:57;;;;;;;10.07;6.80;;;;;;;-40.69;100.00;90859.13;4234542;28;22457;-71